Time;durP1;ratioP1;P1;durP2;ratioP2;P2;SDS_P1;SDS_P2;PMS_P1;PMS_P2;Temp;Humidity;BMP_temperature;BMP_pressure;BME280_temperature;BME280_humidity;BME280_pressure;Samples;Min_cycle;Max_cycle;Signal;HPM_P1;HPM_P2
2022/09/05 00:02:01;;;;;;;4.07;2.75;;;;;;;16.59;72.86;100093.53;5075649;28;20124;-91
2022/09/05 00:04:48;;;;;;;8.02;2.60;;;;;;;16.48;73.46;100101.00;5074245;28;20426;-91
2022/09/05 00:07:47;;;;;;;4.53;2.78;;;;;;;16.40;74.28;100096.19;5060399;28;20024;-92
2022/09/05 00:10:38;;;;;;;3.15;2.70;;;;;;;16.29;74.18;100095.50;5057429;28;20032;-91
2022/09/05 00:13:08;;;;;;;4.97;2.90;;;;;;;16.19;74.66;100086.66;5037126;28;20447;-91
2022/09/05 00:16:06;;;;;;;12.25;2.88;;;;;;;16.23;74.21;100093.94;5024105;28;20078;-91
2022/09/05 00:18:44;;;;;;;5.90;2.83;;;;;;;16.15;73.75;100083.72;5058716;28;20107;-91
2022/09/05 00:21:20;;;;;;;3.63;2.35;;;;;;;16.09;74.71;100079.41;5053920;28;20457;-91
2022/09/05 00:24:30;;;;;;;5.70;2.75;;;;;;;16.07;74.92;100087.84;5041650;28;20024;-91
2022/09/05 00:27:16;;;;;;;4.22;2.80;;;;;;;16.08;75.66;100091.38;5020480;28;20025;-91
2022/09/05 00:29:48;;;;;;;12.10;2.85;;;;;;;15.94;75.42;100083.09;5020527;28;20040;-91
2022/09/05 00:32:16;;;;;;;;;;;;;;;16.11;75.59;100091.63;5037783;28;20033;-90
2022/09/05 00:34:44;;;;;;;4.72;2.90;;;;;;;16.03;75.47;100081.38;5054720;28;19970;-91
2022/09/05 00:37:10;;;;;;;5.95;2.65;;;;;;;15.87;75.09;100066.31;5070125;28;20029;-91
2022/09/05 00:39:42;;;;;;;6.10;3.17;;;;;;;15.87;74.96;100069.84;5040974;28;20475;-91
2022/09/05 00:42:08;;;;;;;;;;;;;;;16.01;75.08;100091.72;5024207;28;20024;-91
2022/09/05 00:44:43;;;;;;;4.72;2.70;;;;;;;15.83;75.33;100060.66;5039840;28;19908;-91
2022/09/05 00:47:22;;;;;;;5.90;3.05;;;;;;;15.92;74.96;100077.94;5040542;28;20031;-92
2022/09/05 00:49:50;;;;;;;4.38;2.67;;;;;;;15.99;74.91;100079.53;5058752;28;20064;-91
2022/09/05 00:52:17;;;;;;;5.05;2.85;;;;;;;15.98;74.82;100080.59;5043160;28;20028;-92
2022/09/05 00:55:17;;;;;;;3.35;2.72;;;;;;;16.01;75.24;100094.44;5039996;28;20034;-91
2022/09/05 00:57:49;;;;;;;5.43;2.47;;;;;;;15.88;75.35;100076.91;5036661;28;20088;-91
2022/09/05 01:00:57;;;;;;;4.82;3.00;;;;;;;15.86;75.12;100078.28;5036445;28;20039;-91
2022/09/05 01:03:29;;;;;;;5.72;2.95;;;;;;;15.98;75.20;100105.06;5044181;28;20037;-92
2022/09/05 01:06:10;;;;;;;2.90;2.28;;;;;;;15.94;75.70;100099.41;5074198;28;20020;-91
2022/09/05 01:08:45;;;;;;;3.15;2.47;;;;;;;16.00;75.70;100111.84;5056342;28;20055;-91
2022/09/05 01:11:31;;;;;;;3.85;3.20;;;;;;;16.00;75.78;100111.84;5055308;28;20455;-91
2022/09/05 01:14:24;;;;;;;4.63;2.95;;;;;;;15.99;75.69;100117.56;5036390;28;20159;-91
2022/09/05 01:17:08;;;;;;;3.70;2.70;;;;;;;16.00;75.45;100108.28;5035493;28;20055;-91
2022/09/05 01:19:42;;;;;;;3.97;2.80;;;;;;;16.02;75.38;100106.94;5035745;28;20435;-91
2022/09/05 01:22:21;;;;;;;5.30;3.10;;;;;;;15.96;76.17;100097.22;5015862;28;20018;-90
2022/09/05 01:25:26;;;;;;;5.13;2.92;;;;;;;15.84;76.41;100078.56;5016580;28;20025;-91
2022/09/05 01:27:55;;;;;;;5.20;2.97;;;;;;;15.85;76.00;100082.09;4999208;28;20120;-91
2022/09/05 01:30:25;;;;;;;6.55;3.33;;;;;;;15.81;76.23;100078.31;5000927;28;20104;-91
2022/09/05 01:33:42;;;;;;;4.38;2.78;;;;;;;15.92;75.95;100096.97;5003236;28;20036;-91
2022/09/05 01:36:25;;;;;;;3.63;2.72;;;;;;;15.87;75.86;100091.56;4972733;28;20068;-91
2022/09/05 01:39:04;;;;;;;4.22;2.88;;;;;;;15.82;76.04;100088.09;5014758;28;20033;-91
2022/09/05 01:41:29;;;;;;;4.32;3.00;;;;;;;15.96;76.12;100099.94;4999508;28;20112;-91
2022/09/05 01:44:10;;;;;;;4.75;2.88;;;;;;;15.96;76.15;100092.59;5015875;28;20056;-91
2022/09/05 01:46:43;;;;;;;6.55;2.90;;;;;;;15.88;76.66;100086.97;5027351;28;20499;-90
2022/09/05 01:49:15;;;;;;;5.13;3.08;;;;;;;15.89;76.75;100086.66;5036898;28;20082;-91
2022/09/05 01:52:19;;;;;;;6.70;3.22;;;;;;;15.94;77.19;100093.97;5002953;28;20112;-91
2022/09/05 01:55:13;;;;;;;5.22;3.00;;;;;;;15.91;76.96;100084.47;5030964;28;20040;-91
2022/09/05 01:57:56;;;;;;;4.20;3.00;;;;;;;15.90;77.53;100088.28;5010194;28;20037;-91
2022/09/05 02:00:24;;;;;;;5.13;3.30;;;;;;;15.71;77.56;100073.78;4999868;28;20067;-91
2022/09/05 02:03:00;;;;;;;10.93;3.33;;;;;;;15.77;77.27;100075.38;5001674;28;20051;-91
2022/09/05 02:06:03;;;;;;;4.85;2.92;;;;;;;15.86;77.29;100081.81;5034849;28;20061;-90
2022/09/05 02:08:31;;;;;;;5.07;3.10;;;;;;;15.90;77.64;100088.28;5034428;28;20086;-91
2022/09/05 02:11:06;;;;;;;6.05;3.22;;;;;;;15.89;77.28;100092.09;5034311;28;20068;-92
2022/09/05 02:13:35;;;;;;;4.18;3.00;;;;;;;15.88;77.26;100093.19;5018948;28;20091;-91
2022/09/05 02:16:00;;;;;;;5.30;3.40;;;;;;;15.87;77.53;100090.75;5034301;28;20020;-91
2022/09/05 02:19:05;;;;;;;3.42;2.90;;;;;;;15.85;77.54;100101.09;5034513;28;20031;-91
2022/09/05 02:21:37;;;;;;;3.72;2.90;;;;;;;15.82;77.51;100091.63;5034368;28;20052;-91
2022/09/05 02:24:24;;;;;;;6.93;3.20;;;;;;;15.79;77.73;100092.19;5052752;28;20021;-91
2022/09/05 02:27:05;;;;;;;5.88;3.13;;;;;;;15.74;77.73;100090.34;5052418;28;20020;-91
2022/09/05 02:29:52;;;;;;;11.43;3.17;;;;;;;15.75;77.86;100093.88;5037266;28;20057;-91
2022/09/05 02:32:21;;;;;;;4.78;3.33;;;;;;;15.64;77.62;100070.56;5038486;28;20035;-91
2022/09/05 02:34:53;;;;;;;4.75;3.22;;;;;;;15.75;77.75;100085.72;5038847;28;20364;-92
2022/09/05 02:37:24;;;;;;;5.38;3.47;;;;;;;15.60;77.60;100069.53;5021868;28;20410;-91
2022/09/05 02:40:11;;;;;;;6.18;3.55;;;;;;;15.68;78.02;100083.28;5038532;28;20025;-91
2022/09/05 02:42:46;;;;;;;5.55;3.67;;;;;;;15.75;77.62;100080.31;5038636;28;20032;-91
2022/09/05 02:45:36;;;;;;;6.53;3.67;;;;;;;15.77;77.81;100083.50;5038916;28;20079;-91
2022/09/05 02:48:14;;;;;;;7.10;3.58;;;;;;;15.80;77.78;100087.59;5039165;28;20515;-91
2022/09/05 02:50:51;;;;;;;4.22;3.38;;;;;;;15.74;77.64;100078.66;5057536;28;20021;-91
2022/09/05 02:53:18;;;;;;;5.10;3.60;;;;;;;15.66;77.72;100077.34;5038912;28;20029;-90
2022/09/05 02:56:07;;;;;;;8.00;3.30;;;;;;;15.71;77.59;100085.44;5022665;28;20430;-91
2022/09/05 02:58:52;;;;;;;7.15;3.67;;;;;;;15.69;78.14;100093.06;5039002;28;20021;-91
2022/09/05 03:01:33;;;;;;;10.20;3.88;;;;;;;15.64;77.60;100086.88;5022581;28;20092;-91
2022/09/05 03:04:31;;;;;;;8.13;3.60;;;;;;;15.65;78.25;100086.59;5022821;28;20028;-90
2022/09/05 03:07:29;;;;;;;4.30;3.40;;;;;;;15.52;78.24;100065.50;5021494;28;20123;-91
2022/09/05 03:10:22;;;;;;;4.30;3.58;;;;;;;15.59;78.20;100097.78;5024992;28;20024;-91
2022/09/05 03:13:07;;;;;;;13.48;8.82;;;;;;;15.56;78.98;100107.28;5033203;28;20051;-91
2022/09/05 03:15:50;;;;;;;26.48;21.73;;;;;;;15.59;78.93;100098.59;5040707;28;20079;-91
2022/09/05 03:18:50;;;;;;;21.50;17.17;;;;;;;15.60;78.51;100100.19;5058556;28;20445;-91
2022/09/05 03:21:28;;;;;;;10.65;8.88;;;;;;;15.55;78.89;100097.53;5058241;28;20115;-91
2022/09/05 03:24:15;;;;;;;10.65;7.07;;;;;;;15.55;78.74;100094.81;5057868;28;20028;-91
2022/09/05 03:26:44;;;;;;;8.18;6.25;;;;;;;15.70;78.30;100112.88;5077022;28;20046;-91
2022/09/05 03:29:13;;;;;;;;;;;;;;;15.74;77.99;100109.34;5076103;28;20461;-92
2022/09/05 03:31:38;;;;;;;4.18;3.53;;;;;;;15.71;77.98;100114.50;5058350;28;19908;-91
2022/09/05 03:34:22;;;;;;;9.60;4.20;;;;;;;15.68;78.08;100115.06;5057634;28;20556;-91
2022/09/05 03:37:16;;;;;;;6.32;4.00;;;;;;;15.66;78.20;100115.34;5057726;28;20406;-91
2022/09/05 03:40:03;;;;;;;5.85;4.10;;;;;;;15.69;78.11;100116.69;5075618;28;20099;-90
2022/09/05 03:42:56;;;;;;;6.28;4.32;;;;;;;15.57;77.57;100101.56;5057903;28;20048;-90
2022/09/05 03:45:40;;;;;;;6.05;4.22;;;;;;;15.68;77.83;100131.34;5043471;28;20020;-90
2022/09/05 03:48:38;;;;;;;9.70;3.33;;;;;;;15.50;77.50;100108.41;5062094;28;20059;-96
2022/09/05 03:51:03;;;;;;;5.35;3.70;;;;;;;15.52;78.45;100139.63;5064278;28;20011;-95
2022/09/05 03:53:41;;;;;;;6.75;3.83;;;;;;;15.34;78.15;100124.00;5080024;28;20044;-95
2022/09/05 03:56:39;;;;;;;5.88;3.80;;;;;;;15.30;78.72;100122.94;5080367;28;20036;-96
2022/09/05 03:59:43;;;;;;;9.88;3.78;;;;;;;15.52;78.13;100157.78;5080534;28;20048;-96
2022/09/05 04:02:10;;;;;;;7.47;3.40;;;;;;;15.57;78.41;100155.06;4997997;28;20019;-96
2022/09/05 04:04:52;;;;;;;8.25;3.47;;;;;;;15.40;78.09;100131.03;5029542;28;20024;-96
2022/09/05 04:07:25;;;;;;;5.55;3.50;;;;;;;15.44;77.86;100120.41;5060347;28;20031;-96
2022/09/05 04:10:06;;;;;;;5.03;3.58;;;;;;;15.58;77.75;100145.81;5041966;28;20056;-96
2022/09/05 04:12:34;;;;;;;5.60;3.58;;;;;;;15.45;78.77;100144.53;5043621;28;20053;-96
2022/09/05 04:15:25;;;;;;;6.80;3.90;;;;;;;15.34;79.43;100145.72;5029456;28;20076;-96
2022/09/05 04:18:18;;;;;;;8.75;3.88;;;;;;;15.46;79.67;100167.06;5061754;28;20036;-96
2022/09/05 04:20:59;;;;;;;9.00;3.67;;;;;;;15.25;79.59;100142.78;5057202;28;20367;-96
2022/09/05 04:23:47;;;;;;;7.43;3.70;;;;;;;15.27;79.81;100145.19;5021462;28;20040;-96
2022/09/05 04:27:09;;;;;;;4.65;3.40;;;;;;;15.37;79.49;100156.00;5039629;28;20088;-95
2022/09/05 04:29:59;;;;;;;5.60;3.78;;;;;;;15.27;80.09;100145.19;4969120;29;20027;-96
2022/09/05 04:32:39;;;;;;;5.07;3.03;;;;;;;15.49;80.04;100167.31;5045604;28;20084;-96
2022/09/05 04:35:21;;;;;;;5.22;3.40;;;;;;;15.44;80.39;100175.50;5040093;28;20005;-95
2022/09/05 04:37:58;;;;;;;6.05;3.97;;;;;;;15.46;79.87;100184.19;5023638;28;20052;-96
2022/09/05 04:41:08;;;;;;;6.82;3.72;;;;;;;15.29;79.70;100145.72;5023177;28;20045;-96
2022/09/05 04:43:46;;;;;;;7.90;4.10;;;;;;;15.50;80.13;100182.53;5022193;28;20028;-95
2022/09/05 04:46:29;;;;;;;13.15;3.83;;;;;;;15.31;79.20;100141.63;5041215;28;20029;-96
2022/09/05 04:49:33;;;;;;;9.85;4.07;;;;;;;15.40;79.64;100151.91;5046026;28;20029;-95
2022/09/05 04:52:04;;;;;;;7.03;3.75;;;;;;;15.64;80.19;100187.31;4961310;28;20027;-96
2022/09/05 04:54:40;;;;;;;7.83;4.10;;;;;;;15.58;80.49;100186.53;4943618;29;20039;-96
2022/09/05 04:57:06;;;;;;;5.07;3.47;;;;;;;15.60;79.88;100187.06;4934983;29;20023;-93
2022/09/05 04:59:47;;;;;;;6.32;3.95;;;;;;;15.38;79.90;100163.06;4969955;28;20390;-96
2022/09/05 05:02:20;;;;;;;14.85;4.43;;;;;;;15.40;80.02;100169.03;5024461;28;20052;-96
2022/09/05 05:04:46;;;;;;;7.82;4.20;;;;;;;15.51;79.99;100173.28;5041113;28;20056;-96
2022/09/05 05:07:41;;;;;;;6.30;3.97;;;;;;;15.73;79.64;100196.53;5039698;28;20021;-96
2022/09/05 05:10:08;;;;;;;16.05;5.35;;;;;;;15.63;78.85;100172.13;5057423;28;20063;-95
2022/09/05 05:13:02;;;;;;;5.72;3.78;;;;;;;15.72;78.47;100178.59;5026708;28;20056;-96
2022/09/05 05:15:30;;;;;;;7.15;3.78;;;;;;;15.68;78.38;100172.88;5043977;28;20056;-96
2022/09/05 05:18:44;;;;;;;;;;;;;;;;;;;;;
2022/09/05 05:21:35;;;;;;;9.05;4.50;;;;;;;16.02;77.50;100183.00;5057686;28;20049;-94
2022/09/05 05:24:22;;;;;;;7.35;3.97;;;;;;;16.20;76.77;100199.69;5039404;28;20112;-96
2022/09/05 05:27:15;;;;;;;7.28;4.25;;;;;;;16.21;77.32;100204.00;5034434;28;20080;-96
2022/09/05 05:30:17;;;;;;;7.22;3.67;;;;;;;16.06;76.98;100175.91;5024380;28;20092;-95
2022/09/05 05:32:43;;;;;;;;;;;;;;;16.37;76.66;100205.47;5026690;28;20440;-95
2022/09/05 05:35:18;;;;;;;5.40;3.72;;;;;;;16.28;75.63;100185.47;5043712;28;19952;-96
2022/09/05 05:37:47;;;;;;;5.10;3.47;;;;;;;16.26;75.18;100180.31;5009784;28;20057;-96
2022/09/05 05:40:15;;;;;;;5.13;3.78;;;;;;;16.35;75.01;100196.81;5024069;28;20098;-96
2022/09/05 05:42:41;;;;;;;5.78;4.35;;;;;;;16.27;75.03;100184.66;5039972;28;20497;-96
2022/09/05 05:45:30;;;;;;;5.85;3.75;;;;;;;16.35;74.39;100194.09;5040796;28;20029;-95
2022/09/05 05:48:03;;;;;;;6.90;4.20;;;;;;;16.51;73.29;100197.47;5011665;28;20021;-95
2022/09/05 05:50:41;;;;;;;7.07;3.90;;;;;;;16.44;73.25;100188.88;5010501;28;20048;-96
2022/09/05 05:53:27;;;;;;;6.50;4.55;;;;;;;16.65;72.79;100222.09;5027870;28;20050;-96
2022/09/05 05:56:34;;;;;;;5.40;4.18;;;;;;;16.77;72.28;100214.34;5066680;28;20025;-96
2022/09/05 05:59:21;;;;;;;5.80;4.07;;;;;;;16.91;71.73;100220.75;5027921;28;20024;-96
2022/09/05 06:02:59;;;;;;;;;;;;;;;;;;;;;
2022/09/05 06:06:02;;;;;;;9.07;4.00;;;;;;;17.02;71.76;100210.53;5010665;28;20050;-95
2022/09/05 06:09:14;;;;;;;4.90;4.00;;;;;;;17.09;70.93;100213.69;4998528;28;20062;-96
2022/09/05 06:12:20;;;;;;;6.88;3.95;;;;;;;17.21;70.77;100213.28;5019846;28;20117;-96
2022/09/05 06:15:45;;;;;;;4.93;3.80;;;;;;;17.42;70.02;100213.03;5036389;28;20069;-91
2022/09/05 06:18:23;;;;;;;6.00;4.15;;;;;;;17.26;69.46;100196.06;5096615;28;20041;-91
2022/09/05 06:21:14;;;;;;;13.40;5.32;;;;;;;17.36;68.75;100199.47;5046820;28;20063;-93
2022/09/05 06:23:48;;;;;;;7.93;4.80;;;;;;;17.40;69.28;100226.13;5064430;28;20084;-96
2022/09/05 06:26:52;;;;;;;8.50;3.88;;;;;;;17.56;69.24;100225.59;5079886;28;20067;-94
2022/09/05 06:29:55;;;;;;;10.98;4.05;;;;;;;17.57;68.44;100208.16;5078235;28;20114;-96
2022/09/05 06:33:01;;;;;;;13.40;4.70;;;;;;;17.72;68.01;100241.72;5065306;28;20025;-94
2022/09/05 06:35:42;;;;;;;5.07;3.90;;;;;;;17.66;67.31;100241.00;5075407;28;20032;-95
2022/09/05 06:38:28;;;;;;;7.80;3.67;;;;;;;17.36;67.71;100215.00;5061648;28;20032;-96
2022/09/05 06:41:20;;;;;;;8.25;4.07;;;;;;;17.61;67.71;100235.63;5061869;28;20118;-96
2022/09/05 06:44:24;;;;;;;8.00;4.40;;;;;;;17.71;67.19;100240.13;5061183;28;20017;-94
2022/09/05 06:47:02;;;;;;;12.55;4.75;;;;;;;17.78;67.57;100216.03;5078192;28;20023;-96
2022/09/05 06:49:39;;;;;;;8.15;4.70;;;;;;;18.22;66.71;100243.97;5061476;28;20020;-96
2022/09/05 06:52:26;;;;;;;13.60;4.07;;;;;;;18.53;65.65;100256.00;5075190;28;20028;-96
2022/09/05 06:55:34;;;;;;;16.65;11.85;;;;;;;18.74;65.64;100252.91;5071928;28;20020;-96
2022/09/05 06:58:43;;;;;;;6.63;3.70;;;;;;;18.98;63.64;100252.75;5095058;28;20067;-96
2022/09/05 07:01:13;;;;;;;4.53;2.92;;;;;;;18.99;63.10;100227.06;5069997;28;20079;-96
2022/09/05 07:03:58;;;;;;;4.35;3.15;;;;;;;19.29;61.74;100254.84;5060604;28;20094;-95
2022/09/05 07:06:46;;;;;;;4.45;2.95;;;;;;;19.17;60.44;100226.16;5078650;28;20021;-96
2022/09/05 07:09:44;;;;;;;5.22;2.63;;;;;;;19.48;60.38;100247.31;5096211;28;20045;-96
2022/09/05 07:12:47;;;;;;;4.82;2.60;;;;;;;19.32;57.63;100213.25;5091110;28;20041;-94
2022/09/05 07:15:46;;;;;;;3.95;2.85;;;;;;;19.53;56.92;100225.38;5044214;28;20033;-96
2022/09/05 07:18:21;;;;;;;5.63;2.38;;;;;;;19.29;55.11;100214.69;5065515;28;20021;-94
2022/09/05 07:20:53;;;;;;;3.78;2.40;;;;;;;19.52;55.74;100229.22;5042286;28;20039;-96
2022/09/05 07:23:43;;;;;;;3.38;2.15;;;;;;;19.53;55.35;100219.91;5039837;28;20026;-96
2022/09/05 07:26:12;;;;;;;2.75;2.20;;;;;;;19.44;55.32;100235.41;5041613;28;20033;-95
2022/09/05 07:28:52;;;;;;;4.28;2.42;;;;;;;19.56;55.96;100245.81;5020083;28;20025;-94
2022/09/05 07:31:52;;;;;;;3.55;2.58;;;;;;;19.76;55.90;100255.50;5053854;28;20080;-95
2022/09/05 07:35:21;;;;;;;4.90;2.88;;;;;;;19.61;57.59;100248.44;5136788;22;20028;-95
2022/09/05 07:38:42;;;;;;;6.68;2.33;;;;;;;19.78;58.45;100250.53;5015328;28;20065;-95
2022/09/05 07:41:38;;;;;;;3.75;2.40;;;;;;;19.87;56.95;100245.94;4957763;28;20038;-96
2022/09/05 07:44:09;;;;;;;4.85;2.70;;;;;;;19.91;56.11;100216.06;5024705;28;20117;-95
2022/09/05 07:46:39;;;;;;;3.70;2.38;;;;;;;19.97;56.02;100223.03;4980140;28;20022;-96
2022/09/05 07:49:30;;;;;;;3.53;2.72;;;;;;;20.08;56.06;100240.00;4982398;28;20030;-96
2022/09/05 07:51:57;;;;;;;6.15;3.00;;;;;;;20.03;56.09;100215.53;4989517;28;20033;-91
2022/09/05 07:54:30;;;;;;;4.15;3.25;;;;;;;20.16;56.19;100236.50;4980888;28;20620;-91
2022/09/05 07:57:13;;;;;;;3.90;2.50;;;;;;;20.09;54.81;100234.22;4980950;28;20046;-94
2022/09/05 08:00:01;;;;;;;5.25;2.60;;;;;;;20.19;54.77;100235.88;5013851;28;20006;-96
2022/09/05 08:05:28;;;;;;;3.45;2.05;;;;;;;20.12;53.87;100219.91;5073507;22;20060;-95
2022/09/05 08:07:54;;;;;;;5.05;3.25;;;;;;;20.35;52.70;100223.44;4987969;28;20499;-95
2022/09/05 08:10:35;;;;;;;6.13;2.28;;;;;;;20.65;50.82;100250.34;4997085;28;20073;-95
2022/09/05 08:13:08;;;;;;;5.63;2.13;;;;;;;20.51;50.65;100220.31;4999192;28;20038;-95
2022/09/05 08:33:31;;;;;;;2.60;1.30;;;;;;;20.97;46.78;100251.94;6074248;23;20047;31
2022/09/05 08:36:18;;;;;;;1.80;1.30;;;;;;;20.75;47.18;100245.41;5010724;28;20045;-95
2022/09/05 08:38:45;;;;;;;2.83;1.85;;;;;;;20.82;47.33;100246.88;5001836;28;20053;-94
2022/09/05 08:41:52;;;;;;;9.30;4.50;;;;;;;21.11;47.39;100238.94;4983773;28;20030;-96
2022/09/05 08:44:34;;;;;;;7.85;5.50;;;;;;;21.20;46.86;100236.22;5002849;28;20507;-96
2022/09/05 08:47:30;;;;;;;3.85;2.35;;;;;;;21.28;47.52;100251.88;4988247;28;20523;-95
2022/09/05 08:50:10;;;;;;;4.50;2.72;;;;;;;21.35;47.39;100248.66;5004622;28;20022;-94
2022/09/05 08:52:55;;;;;;;2.20;1.70;;;;;;;21.43;46.87;100258.06;4997412;28;20044;-90
2022/09/05 08:55:31;;;;;;;2.92;1.65;;;;;;;21.39;47.16;100228.53;4995375;28;20382;-92
2022/09/05 09:01:26;;;;;;;2.38;1.52;;;;;;;21.22;47.13;100222.22;5007080;28;20583;-93
2022/09/05 09:04:15;;;;;;;3.08;1.50;;;;;;;21.19;47.01;100245.56;4990914;28;20026;-92
2022/09/05 09:07:09;;;;;;;3.55;2.00;;;;;;;21.19;47.63;100249.09;4993405;28;20026;-92
2022/09/05 09:09:38;;;;;;;3.17;1.80;;;;;;;20.99;48.47;100214.88;4968870;28;20048;-93
2022/09/05 09:36:01;;;;;;;2.53;1.77;;;;;;;21.99;44.92;100226.16;5387488;22;20046;-96
2022/09/05 09:39:05;;;;;;;3.67;1.95;;;;;;;22.00;44.96;100225.81;4991048;28;20034;-90
2022/09/05 09:42:12;;;;;;;3.72;2.60;;;;;;;22.10;45.02;100221.94;4984709;28;20038;-91
2022/09/05 09:44:51;;;;;;;5.20;2.33;;;;;;;22.26;45.01;100226.94;4976824;28;20125;-91
2022/09/05 09:47:48;;;;;;;3.28;2.15;;;;;;;22.51;44.06;100228.00;4984036;28;20484;-93
2022/09/05 09:50:42;;;;;;;4.63;2.22;;;;;;;22.59;43.69;100208.75;4996618;28;20042;-94
2022/09/05 09:53:19;;;;;;;3.17;1.70;;;;;;;22.69;42.74;100232.31;4979602;28;20030;-95
2022/09/05 09:59:38;;;;;;;2.53;1.45;;;;;;;22.33;44.18;100221.75;5004999;28;20623;-95
2022/09/05 10:02:23;;;;;;;4.50;3.35;;;;;;;21.98;45.48;100217.13;4997365;28;20026;-95
2022/09/05 10:23:52;;;;;;;4.10;1.60;;;;;;;22.85;42.06;100212.53;4879756;23;20062;-96
2022/09/05 10:29:06;;;;;;;4.35;1.73;;;;;;;23.24;42.65;100210.56;5033369;23;20057;-96
2022/09/05 10:31:59;;;;;;;4.40;2.00;;;;;;;23.42;42.72;100211.28;4980593;28;20041;-96
2022/09/05 10:34:43;;;;;;;3.05;1.83;;;;;;;23.31;40.91;100219.09;5007972;28;20029;-95
2022/09/05 10:37:10;;;;;;;2.88;1.60;;;;;;;23.07;41.70;100195.00;4994920;28;20030;-96
2022/09/05 10:39:49;;;;;;;2.90;1.50;;;;;;;22.86;41.58;100190.22;4990891;28;20025;-95
2022/09/05 10:42:15;;;;;;;1.83;1.27;;;;;;;;;;4993538;28;20106;-96
2022/09/05 10:44:45;;;;;;;6.65;1.40;;;;;;;22.78;42.50;100185.59;5021999;28;20061;-95
2022/09/05 10:47:34;;;;;;;2.17;1.77;;;;;;;22.90;42.43;100190.38;4989165;28;20017;-95
2022/09/05 10:50:07;;;;;;;3.35;1.90;;;;;;;23.06;43.06;100171.44;5007966;28;20022;-94
2022/09/05 10:52:59;;;;;;;3.28;1.70;;;;;;;23.39;41.79;100190.75;5009286;28;20013;-96
2022/09/05 10:55:55;;;;;;;14.82;10.10;;;;;;;23.33;41.91;100178.34;5025740;28;20037;-96
2022/09/05 10:58:43;;;;;;;2.58;1.85;;;;;;;23.44;41.42;100168.56;5014945;28;20025;-96
2022/09/05 11:01:28;;;;;;;2.78;1.50;;;;;;;23.47;40.97;100189.06;5029759;28;20483;-96
2022/09/05 11:04:18;;;;;;;3.13;1.50;;;;;;;23.78;41.30;100177.66;5025628;28;20021;-96
2022/09/05 11:07:12;;;;;;;3.28;2.10;;;;;;;23.99;40.13;100181.22;5013202;28;20078;-96
2022/09/05 11:10:14;;;;;;;2.35;1.48;;;;;;;23.79;39.97;100151.78;5033863;28;20450;-96
2022/09/05 11:13:24;;;;;;;4.05;1.88;;;;;;;23.95;39.92;100158.28;5020737;28;20026;-96
2022/09/05 11:16:54;;;;;;;3.05;1.88;;;;;;;24.14;40.36;100173.44;5047129;28;20053;-96
2022/09/05 11:19:39;;;;;;;2.72;1.63;;;;;;;24.04;39.59;100180.19;4986864;28;20029;-96
2022/09/05 11:22:17;;;;;;;2.47;1.65;;;;;;;23.79;39.96;100179.28;5014063;28;20107;-96
2022/09/05 11:24:57;;;;;;;3.63;1.52;;;;;;;23.73;39.00;100153.13;5041342;28;20029;-95
2022/09/05 11:28:00;;;;;;;2.80;1.50;;;;;;;23.74;39.44;100143.72;4992646;28;20476;-96
2022/09/05 11:34:33;;;;;;;7.78;2.83;;;;;;;24.04;39.30;100157.38;4935594;29;20036;-96
2022/09/05 11:37:30;;;;;;;4.78;2.10;;;;;;;24.02;39.23;100148.66;5017979;28;20030;-96
2022/09/05 11:43:40;;;;;;;3.38;1.50;;;;;;;23.52;39.96;100145.69;4961104;29;20042;-92
2022/09/05 11:46:45;;;;;;;2.23;1.30;;;;;;;23.52;39.27;100137.44;4946291;29;20043;-95
2022/09/05 11:56:36;;;;;;;2.85;1.70;;;;;;;23.76;38.34;100120.28;5014328;28;20077;-96
2022/09/05 12:09:58;;;;;;;2.45;1.50;;;;;;;23.83;38.76;100105.97;5938199;23;20124;-94
2022/09/05 12:12:41;;;;;;;2.13;1.27;;;;;;;23.75;37.95;100098.59;4994184;28;20034;-92
2022/09/05 12:36:13;;;;;;;1.92;1.33;;;;;;;24.46;35.77;100085.63;5026529;28;20038;-96
2022/09/05 12:52:18;;;;;;;1.98;1.20;;;;;;;25.22;36.24;100083.28;5004153;28;20037;-92
2022/09/05 13:07:22;;;;;;;4.65;1.23;;;;;;;25.42;35.53;100054.69;5218847;23;19917;-96
2022/09/05 13:14:25;;;;;;;2.63;1.20;;;;;;;25.20;35.32;100062.34;5381048;22;20052;-96
2022/09/05 13:39:39;;;;;;;2.83;1.90;;;;;;;24.70;36.88;100077.38;4977176;28;20100;-94
2022/09/05 13:42:09;;;;;;;3.30;1.33;;;;;;;24.47;36.42;100040.44;4958056;28;20038;-94
2022/09/05 13:44:42;;;;;;;4.65;2.05;;;;;;;24.62;36.91;100056.28;4941140;28;20036;-95
2022/09/05 13:47:29;;;;;;;4.40;1.80;;;;;;;24.66;36.85;100072.94;4961442;28;20033;-91
2022/09/05 13:50:26;;;;;;;3.15;1.50;;;;;;;24.58;37.24;100049.88;4993351;28;20040;-92
2022/09/05 13:53:15;;;;;;;10.02;1.85;;;;;;;24.54;37.71;100063.50;4968246;28;20420;-92
2022/09/05 13:55:52;;;;;;;11.55;3.50;;;;;;;24.52;37.35;100048.50;4992101;28;20098;-94
2022/09/05 13:58:27;;;;;;;4.07;1.27;;;;;;;24.53;36.54;100074.88;4960005;28;20037;-94
2022/09/05 15:11:08;;;;;;;2.30;1.50;;;;;;;22.90;41.43;100053.88;4989570;28;20042;-96
2022/09/05 15:20:02;;;;;;;2.08;1.40;;;;;;;22.79;42.18;100058.97;4983561;28;20141;-93
2022/09/05 15:22:40;;;;;;;2.30;1.67;;;;;;;22.84;42.48;100063.44;5250818;23;20050;-96
2022/09/05 15:25:19;;;;;;;2.38;1.52;;;;;;;22.90;42.67;100064.06;4980860;28;20046;-93
2022/09/05 15:27:55;;;;;;;2.83;1.40;;;;;;;22.78;42.28;100051.03;4962219;28;20057;-96
2022/09/05 15:30:33;;;;;;;2.97;1.98;;;;;;;22.66;42.69;100051.78;4964912;28;20038;-96
2022/09/05 15:33:53;;;;;;;7.80;3.50;;;;;;;22.79;42.65;100071.88;5012090;28;20035;-95
2022/09/05 15:57:17;;;;;;;7.57;1.75;;;;;;;22.26;43.84;100041.19;5035551;28;20056;-96
2022/09/05 15:59:53;;;;;;;2.22;1.80;;;;;;;22.32;44.33;100050.03;4983135;28;20121;-95
2022/09/05 16:05:02;;;;;;;3.22;1.85;;;;;;;22.34;44.62;100059.53;5728629;23;20050;-96
2022/09/05 16:18:47;;;;;;;2.53;1.52;;;;;;;22.00;44.92;100053.06;5676370;23;20046;-95
2022/09/05 16:21:15;;;;;;;3.80;1.40;;;;;;;21.86;44.34;100054.41;5028494;28;20526;-95
2022/09/05 16:24:06;;;;;;;4.53;2.40;;;;;;;21.88;44.48;100055.69;5005713;28;20033;-94
2022/09/05 16:26:35;;;;;;;4.07;2.30;;;;;;;22.02;44.31;100073.84;4993725;28;20037;-96
2022/09/05 16:29:32;;;;;;;2.85;1.90;;;;;;;21.88;44.26;100052.94;5016993;28;20034;-95
2022/09/05 16:32:01;;;;;;;3.47;2.05;;;;;;;21.96;44.29;100079.53;4996971;28;20036;-95
2022/09/05 16:35:00;;;;;;;2.92;2.35;;;;;;;21.96;44.37;100071.28;5048687;28;20076;-95
2022/09/05 16:37:46;;;;;;;6.90;4.00;;;;;;;21.97;44.43;100078.38;5004557;28;20053;-95
2022/09/05 16:40:25;;;;;;;4.75;2.60;;;;;;;21.91;44.69;100076.16;5012485;28;20093;-96
2022/09/05 16:43:32;;;;;;;2.85;1.92;;;;;;;21.89;44.59;100076.47;5014790;28;20063;-96
2022/09/05 16:46:15;;;;;;;1.98;1.58;;;;;;;21.78;44.05;100058.78;5028331;28;20026;-96
2022/09/05 16:48:48;;;;;;;2.28;1.58;;;;;;;21.75;44.80;100056.69;5017704;28;20116;-92
2022/09/05 16:51:35;;;;;;;3.40;1.65;;;;;;;21.77;44.68;100063.47;5000928;28;20033;-91
2022/09/05 16:54:22;;;;;;;3.45;1.67;;;;;;;21.71;45.52;100083.94;5017389;28;20055;-91
2022/09/05 16:56:49;;;;;;;1.77;1.30;;;;;;;21.57;45.11;100075.09;4999545;28;20107;-92
2022/09/05 16:59:20;;;;;;;2.08;1.70;;;;;;;21.46;45.38;100062.84;5016685;28;20029;-92
2022/09/05 17:02:08;;;;;;;3.63;2.00;;;;;;;21.51;45.92;100098.31;5001917;28;20511;-92
2022/09/05 17:04:58;;;;;;;2.58;1.70;;;;;;;21.39;46.65;100098.94;5016895;28;20021;-91
2022/09/05 17:07:35;;;;;;;5.28;2.40;;;;;;;21.21;48.81;100084.47;5034340;28;20025;-92
2022/09/05 17:10:08;;;;;;;6.93;3.15;;;;;;;21.17;48.76;100095.25;5021587;28;20027;-91
2022/09/05 17:12:36;;;;;;;6.00;3.55;;;;;;;21.01;48.98;100094.09;5020844;28;20368;-92
2022/09/05 17:15:07;;;;;;;7.93;3.17;;;;;;;20.94;49.30;100102.78;5019774;28;20522;-91
2022/09/05 17:17:42;;;;;;;6.90;3.65;;;;;;;21.08;49.58;100116.31;5020346;28;20029;-91
2022/09/05 17:20:15;;;;;;;8.35;2.90;;;;;;;20.70;50.30;100094.22;5053048;28;20139;-92
2022/09/05 17:22:51;;;;;;;11.27;3.28;;;;;;;20.66;51.39;100101.44;4981173;28;20033;-92
2022/09/05 17:25:21;;;;;;;6.72;2.75;;;;;;;20.58;51.65;100114.78;4981626;28;20026;-92
2022/09/05 17:27:53;;;;;;;4.95;2.72;;;;;;;20.39;53.42;100125.16;4981154;28;20041;-91
2022/09/05 17:30:55;;;;;;;3.88;2.60;;;;;;;20.47;52.99;100129.84;4966285;28;20047;-91